sensor_id;sensor_type;location;lat;lon;timestamp;P1;durP1;ratioP1;P2;durP2;ratioP2
6251;SDS011;3159;52.414;9.784;2023-04-22T00:01:32;10.47;;;8.40;;
6251;SDS011;3159;52.414;9.784;2023-04-22T00:03:59;9.63;;;8.63;;
6251;SDS011;3159;52.414;9.784;2023-04-22T00:06:28;18.37;;;8.40;;
6251;SDS011;3159;52.414;9.784;2023-04-22T00:08:56;11.07;;;8.53;;
6251;SDS011;3159;52.414;9.784;2023-04-22T00:11:22;12.17;;;7.97;;
6251;SDS011;3159;52.414;9.784;2023-04-22T00:13:50;9.23;;;7.60;;
6251;SDS011;3159;52.414;9.784;2023-04-22T00:16:17;10.13;;;8.70;;
6251;SDS011;3159;52.414;9.784;2023-04-22T00:18:44;11.77;;;8.27;;
6251;SDS011;3159;52.414;9.784;2023-04-22T00:21:11;9.20;;;8.33;;
6251;SDS011;3159;52.414;9.784;2023-04-22T00:23:39;12.23;;;8.87;;
6251;SDS011;3159;52.414;9.784;2023-04-22T00:26:09;13.00;;;8.73;;
6251;SDS011;3159;52.414;9.784;2023-04-22T00:28:36;10.07;;;8.60;;
6251;SDS011;3159;52.414;9.784;2023-04-22T00:31:03;10.53;;;8.33;;
6251;SDS011;3159;52.414;9.784;2023-04-22T00:33:30;8.90;;;7.90;;
6251;SDS011;3159;52.414;9.784;2023-04-22T00:35:56;11.03;;;8.83;;
6251;SDS011;3159;52.414;9.784;2023-04-22T00:38:23;8.97;;;8.10;;
6251;SDS011;3159;52.414;9.784;2023-04-22T00:40:51;12.10;;;9.00;;
6251;SDS011;3159;52.414;9.784;2023-04-22T00:43:18;10.60;;;8.70;;
6251;SDS011;3159;52.414;9.784;2023-04-22T00:45:45;10.30;;;8.63;;
6251;SDS011;3159;52.414;9.784;2023-04-22T00:48:14;9.97;;;8.97;;
6251;SDS011;3159;52.414;9.784;2023-04-22T00:50:41;10.40;;;8.63;;
6251;SDS011;3159;52.414;9.784;2023-04-22T00:53:07;10.40;;;9.07;;
6251;SDS011;3159;52.414;9.784;2023-04-22T00:55:34;12.33;;;9.03;;
6251;SDS011;3159;52.414;9.784;2023-04-22T00:58:03;13.63;;;9.53;;
6251;SDS011;3159;52.414;9.784;2023-04-22T01:00:30;11.93;;;8.60;;
6251;SDS011;3159;52.414;9.784;2023-04-22T01:02:57;10.17;;;8.63;;
6251;SDS011;3159;52.414;9.784;2023-04-22T01:05:24;12.67;;;8.60;;
6251;SDS011;3159;52.414;9.784;2023-04-22T01:07:54;11.97;;;8.80;;
6251;SDS011;3159;52.414;9.784;2023-04-22T01:10:21;10.23;;;9.20;;
6251;SDS011;3159;52.414;9.784;2023-04-22T01:12:48;12.47;;;9.27;;
6251;SDS011;3159;52.414;9.784;2023-04-22T01:15:16;13.10;;;8.73;;
6251;SDS011;3159;52.414;9.784;2023-04-22T01:17:43;10.20;;;9.00;;
6251;SDS011;3159;52.414;9.784;2023-04-22T01:20:11;12.43;;;9.00;;
6251;SDS011;3159;52.414;9.784;2023-04-22T01:22:39;10.87;;;8.83;;
6251;SDS011;3159;52.414;9.784;2023-04-22T01:25:09;12.00;;;8.90;;
6251;SDS011;3159;52.414;9.784;2023-04-22T01:27:36;12.83;;;9.43;;
6251;SDS011;3159;52.414;9.784;2023-04-22T01:30:04;10.77;;;8.47;;
6251;SDS011;3159;52.414;9.784;2023-04-22T01:32:32;12.13;;;9.07;;
6251;SDS011;3159;52.414;9.784;2023-04-22T01:35:00;12.07;;;9.27;;
6251;SDS011;3159;52.414;9.784;2023-04-22T01:37:27;10.67;;;8.43;;
6251;SDS011;3159;52.414;9.784;2023-04-22T01:39:54;11.50;;;8.83;;
6251;SDS011;3159;52.414;9.784;2023-04-22T01:42:23;12.33;;;8.90;;
6251;SDS011;3159;52.414;9.784;2023-04-22T01:44:50;9.77;;;8.77;;
6251;SDS011;3159;52.414;9.784;2023-04-22T01:47:17;11.23;;;9.50;;
6251;SDS011;3159;52.414;9.784;2023-04-22T01:49:44;12.47;;;9.40;;
6251;SDS011;3159;52.414;9.784;2023-04-22T01:52:11;10.10;;;8.93;;
6251;SDS011;3159;52.414;9.784;2023-04-22T01:54:38;12.60;;;9.43;;
6251;SDS011;3159;52.414;9.784;2023-04-22T01:57:07;11.03;;;8.87;;
6251;SDS011;3159;52.414;9.784;2023-04-22T01:59:36;10.83;;;9.37;;
6251;SDS011;3159;52.414;9.784;2023-04-22T02:02:03;14.43;;;9.50;;
6251;SDS011;3159;52.414;9.784;2023-04-22T02:04:30;10.10;;;9.10;;
6251;SDS011;3159;52.414;9.784;2023-04-22T02:06:57;10.70;;;9.60;;
6251;SDS011;3159;52.414;9.784;2023-04-22T02:09:24;11.73;;;8.60;;
6251;SDS011;3159;52.414;9.784;2023-04-22T02:11:51;9.77;;;8.87;;
6251;SDS011;3159;52.414;9.784;2023-04-22T02:14:18;12.93;;;9.20;;
6251;SDS011;3159;52.414;9.784;2023-04-22T02:16:46;14.30;;;10.10;;
6251;SDS011;3159;52.414;9.784;2023-04-22T02:19:13;11.93;;;10.00;;
6251;SDS011;3159;52.414;9.784;2023-04-22T02:21:40;11.93;;;9.23;;
6251;SDS011;3159;52.414;9.784;2023-04-22T02:24:07;14.90;;;9.27;;
6251;SDS011;3159;52.414;9.784;2023-04-22T02:26:34;12.53;;;9.80;;
6251;SDS011;3159;52.414;9.784;2023-04-22T02:29:01;12.07;;;9.57;;
6251;SDS011;3159;52.414;9.784;2023-04-22T02:31:28;17.67;;;10.20;;
6251;SDS011;3159;52.414;9.784;2023-04-22T02:33:56;13.17;;;10.00;;
6251;SDS011;3159;52.414;9.784;2023-04-22T02:36:23;10.60;;;9.17;;
6251;SDS011;3159;52.414;9.784;2023-04-22T02:38:51;12.13;;;9.90;;
6251;SDS011;3159;52.414;9.784;2023-04-22T02:41:18;12.33;;;10.03;;
6251;SDS011;3159;52.414;9.784;2023-04-22T02:43:45;10.70;;;9.60;;
6251;SDS011;3159;52.414;9.784;2023-04-22T02:46:12;12.00;;;10.13;;
6251;SDS011;3159;52.414;9.784;2023-04-22T02:48:40;12.73;;;9.87;;
6251;SDS011;3159;52.414;9.784;2023-04-22T02:51:09;13.80;;;10.07;;
6251;SDS011;3159;52.414;9.784;2023-04-22T02:53:36;12.93;;;10.40;;
6251;SDS011;3159;52.414;9.784;2023-04-22T02:56:03;11.37;;;10.17;;
6251;SDS011;3159;52.414;9.784;2023-04-22T02:58:30;12.77;;;10.27;;
6251;SDS011;3159;52.414;9.784;2023-04-22T03:00:57;13.33;;;10.83;;
6251;SDS011;3159;52.414;9.784;2023-04-22T03:03:24;11.00;;;9.87;;
6251;SDS011;3159;52.414;9.784;2023-04-22T03:05:51;15.93;;;10.57;;
6251;SDS011;3159;52.414;9.784;2023-04-22T03:08:21;14.93;;;10.90;;
6251;SDS011;3159;52.414;9.784;2023-04-22T03:10:48;12.40;;;10.20;;
6251;SDS011;3159;52.414;9.784;2023-04-22T03:13:14;11.57;;;10.30;;
6251;SDS011;3159;52.414;9.784;2023-04-22T03:15:41;12.23;;;10.73;;
6251;SDS011;3159;52.414;9.784;2023-04-22T03:18:08;12.50;;;10.60;;
6251;SDS011;3159;52.414;9.784;2023-04-22T03:20:37;13.57;;;11.17;;
6251;SDS011;3159;52.414;9.784;2023-04-22T03:23:04;14.43;;;10.57;;
6251;SDS011;3159;52.414;9.784;2023-04-22T03:25:33;13.73;;;10.87;;
6251;SDS011;3159;52.414;9.784;2023-04-22T03:28:00;15.77;;;11.20;;
6251;SDS011;3159;52.414;9.784;2023-04-22T03:30:27;12.30;;;11.10;;
6251;SDS011;3159;52.414;9.784;2023-04-22T03:32:54;14.27;;;10.33;;
6251;SDS011;3159;52.414;9.784;2023-04-22T03:35:21;13.50;;;10.17;;
6251;SDS011;3159;52.414;9.784;2023-04-22T03:37:48;15.37;;;11.60;;
6251;SDS011;3159;52.414;9.784;2023-04-22T03:40:15;13.40;;;11.00;;
6251;SDS011;3159;52.414;9.784;2023-04-22T03:42:43;14.33;;;10.53;;
6251;SDS011;3159;52.414;9.784;2023-04-22T03:45:10;14.17;;;10.57;;
6251;SDS011;3159;52.414;9.784;2023-04-22T03:47:37;12.80;;;11.23;;
6251;SDS011;3159;52.414;9.784;2023-04-22T03:50:05;12.57;;;10.80;;
6251;SDS011;3159;52.414;9.784;2023-04-22T03:52:32;17.10;;;11.07;;
6251;SDS011;3159;52.414;9.784;2023-04-22T03:54:59;19.57;;;11.77;;
6251;SDS011;3159;52.414;9.784;2023-04-22T03:57:26;15.70;;;11.90;;
6251;SDS011;3159;52.414;9.784;2023-04-22T03:59:54;16.03;;;11.03;;
6251;SDS011;3159;52.414;9.784;2023-04-22T04:02:21;14.20;;;10.80;;
6251;SDS011;3159;52.414;9.784;2023-04-22T04:04:48;15.37;;;11.20;;
6251;SDS011;3159;52.414;9.784;2023-04-22T04:07:15;17.40;;;12.30;;
6251;SDS011;3159;52.414;9.784;2023-04-22T04:09:42;16.37;;;11.80;;
6251;SDS011;3159;52.414;9.784;2023-04-22T04:12:09;15.57;;;11.67;;
6251;SDS011;3159;52.414;9.784;2023-04-22T04:14:35;17.77;;;11.63;;
6251;SDS011;3159;52.414;9.784;2023-04-22T04:17:04;16.53;;;11.47;;
6251;SDS011;3159;52.414;9.784;2023-04-22T04:19:33;14.50;;;11.63;;
6251;SDS011;3159;52.414;9.784;2023-04-22T04:22:00;19.47;;;11.80;;
6251;SDS011;3159;52.414;9.784;2023-04-22T04:24:27;18.70;;;12.63;;
6251;SDS011;3159;52.414;9.784;2023-04-22T04:26:54;16.17;;;12.80;;
6251;SDS011;3159;52.414;9.784;2023-04-22T04:29:22;16.73;;;12.63;;
6251;SDS011;3159;52.414;9.784;2023-04-22T04:31:49;15.87;;;12.53;;
6251;SDS011;3159;52.414;9.784;2023-04-22T04:34:17;19.30;;;12.80;;
6251;SDS011;3159;52.414;9.784;2023-04-22T04:36:44;17.03;;;12.53;;
6251;SDS011;3159;52.414;9.784;2023-04-22T04:39:11;16.03;;;12.40;;
6251;SDS011;3159;52.414;9.784;2023-04-22T04:41:41;19.33;;;12.90;;
6251;SDS011;3159;52.414;9.784;2023-04-22T04:44:09;16.83;;;12.53;;
6251;SDS011;3159;52.414;9.784;2023-04-22T04:46:36;18.83;;;12.77;;
6251;SDS011;3159;52.414;9.784;2023-04-22T04:49:03;15.87;;;12.07;;
6251;SDS011;3159;52.414;9.784;2023-04-22T04:51:31;17.23;;;12.23;;
6251;SDS011;3159;52.414;9.784;2023-04-22T04:53:58;16.37;;;11.57;;
6251;SDS011;3159;52.414;9.784;2023-04-22T04:56:25;16.00;;;12.23;;
6251;SDS011;3159;52.414;9.784;2023-04-22T04:58:52;20.20;;;12.33;;
6251;SDS011;3159;52.414;9.784;2023-04-22T05:01:19;17.33;;;12.17;;
6251;SDS011;3159;52.414;9.784;2023-04-22T05:03:46;16.50;;;12.70;;
6251;SDS011;3159;52.414;9.784;2023-04-22T05:06:13;18.83;;;12.30;;
6251;SDS011;3159;52.414;9.784;2023-04-22T05:08:41;15.97;;;11.67;;
6251;SDS011;3159;52.414;9.784;2023-04-22T05:11:08;15.10;;;11.83;;
6251;SDS011;3159;52.414;9.784;2023-04-22T05:13:35;15.37;;;12.57;;
6251;SDS011;3159;52.414;9.784;2023-04-22T05:16:02;15.07;;;12.17;;
6251;SDS011;3159;52.414;9.784;2023-04-22T05:18:29;16.97;;;12.20;;
6251;SDS011;3159;52.414;9.784;2023-04-22T05:20:56;16.53;;;12.10;;
6251;SDS011;3159;52.414;9.784;2023-04-22T05:23:23;16.97;;;11.83;;
6251;SDS011;3159;52.414;9.784;2023-04-22T05:25:52;22.07;;;13.10;;
6251;SDS011;3159;52.414;9.784;2023-04-22T05:28:19;16.67;;;12.17;;
6251;SDS011;3159;52.414;9.784;2023-04-22T05:30:46;16.87;;;11.70;;
6251;SDS011;3159;52.414;9.784;2023-04-22T05:33:13;17.73;;;12.00;;
6251;SDS011;3159;52.414;9.784;2023-04-22T05:35:40;19.60;;;11.73;;
6251;SDS011;3159;52.414;9.784;2023-04-22T05:38:07;15.57;;;11.23;;
6251;SDS011;3159;52.414;9.784;2023-04-22T05:40:34;14.43;;;11.87;;
6251;SDS011;3159;52.414;9.784;2023-04-22T05:43:02;13.40;;;11.00;;
6251;SDS011;3159;52.414;9.784;2023-04-22T05:45:29;16.70;;;11.10;;
6251;SDS011;3159;52.414;9.784;2023-04-22T05:47:56;16.10;;;10.97;;
6251;SDS011;3159;52.414;9.784;2023-04-22T05:50:23;13.70;;;11.17;;
6251;SDS011;3159;52.414;9.784;2023-04-22T05:52:50;14.00;;;10.93;;
6251;SDS011;3159;52.414;9.784;2023-04-22T05:55:17;13.90;;;10.60;;
6251;SDS011;3159;52.414;9.784;2023-04-22T05:57:44;15.27;;;10.63;;
6251;SDS011;3159;52.414;9.784;2023-04-22T06:00:13;13.73;;;11.20;;
6251;SDS011;3159;52.414;9.784;2023-04-22T06:02:41;11.77;;;10.40;;
6251;SDS011;3159;52.414;9.784;2023-04-22T06:05:08;14.20;;;11.37;;
6251;SDS011;3159;52.414;9.784;2023-04-22T06:07:35;11.93;;;10.50;;
6251;SDS011;3159;52.414;9.784;2023-04-22T06:10:02;14.30;;;10.03;;
6251;SDS011;3159;52.414;9.784;2023-04-22T06:12:29;15.40;;;10.53;;
6251;SDS011;3159;52.414;9.784;2023-04-22T06:14:56;12.83;;;10.20;;
6251;SDS011;3159;52.414;9.784;2023-04-22T06:17:25;12.80;;;10.23;;
6251;SDS011;3159;52.414;9.784;2023-04-22T06:19:53;16.63;;;10.00;;
6251;SDS011;3159;52.414;9.784;2023-04-22T06:22:21;16.00;;;10.57;;
6251;SDS011;3159;52.414;9.784;2023-04-22T06:24:48;11.87;;;9.77;;
6251;SDS011;3159;52.414;9.784;2023-04-22T06:27:22;13.23;;;9.50;;
6251;SDS011;3159;52.414;9.784;2023-04-22T06:29:50;13.00;;;9.20;;
6251;SDS011;3159;52.414;9.784;2023-04-22T06:32:17;10.53;;;8.83;;
6251;SDS011;3159;52.414;9.784;2023-04-22T06:34:46;14.03;;;8.80;;
6251;SDS011;3159;52.414;9.784;2023-04-22T06:37:13;16.20;;;8.43;;
6251;SDS011;3159;52.414;9.784;2023-04-22T06:39:40;10.87;;;8.73;;
6251;SDS011;3159;52.414;9.784;2023-04-22T06:42:07;11.70;;;8.60;;
6251;SDS011;3159;52.414;9.784;2023-04-22T06:44:35;16.07;;;8.60;;
6251;SDS011;3159;52.414;9.784;2023-04-22T06:47:03;12.10;;;8.40;;
6251;SDS011;3159;52.414;9.784;2023-04-22T06:49:30;17.37;;;8.23;;
6251;SDS011;3159;52.414;9.784;2023-04-22T06:52:01;9.53;;;7.50;;
6251;SDS011;3159;52.414;9.784;2023-04-22T06:54:32;9.07;;;7.10;;
6251;SDS011;3159;52.414;9.784;2023-04-22T06:57:06;13.97;;;7.50;;
6251;SDS011;3159;52.414;9.784;2023-04-22T06:59:33;9.70;;;6.90;;
6251;SDS011;3159;52.414;9.784;2023-04-22T07:02:00;9.50;;;6.43;;
6251;SDS011;3159;52.414;9.784;2023-04-22T07:04:27;8.40;;;6.83;;
6251;SDS011;3159;52.414;9.784;2023-04-22T07:06:55;8.63;;;6.43;;
6251;SDS011;3159;52.414;9.784;2023-04-22T07:09:31;7.77;;;6.10;;
6251;SDS011;3159;52.414;9.784;2023-04-22T07:12:02;10.23;;;6.37;;
6251;SDS011;3159;52.414;9.784;2023-04-22T07:14:32;7.77;;;6.27;;
6251;SDS011;3159;52.414;9.784;2023-04-22T07:16:59;10.93;;;6.53;;
6251;SDS011;3159;52.414;9.784;2023-04-22T07:19:26;6.87;;;5.70;;
6251;SDS011;3159;52.414;9.784;2023-04-22T07:21:54;9.43;;;6.57;;
6251;SDS011;3159;52.414;9.784;2023-04-22T07:24:21;8.40;;;5.70;;
6251;SDS011;3159;52.414;9.784;2023-04-22T07:26:50;9.27;;;5.67;;
6251;SDS011;3159;52.414;9.784;2023-04-22T07:29:17;7.83;;;5.53;;
6251;SDS011;3159;52.414;9.784;2023-04-22T07:31:45;8.40;;;6.33;;
6251;SDS011;3159;52.414;9.784;2023-04-22T07:34:13;9.33;;;5.93;;
6251;SDS011;3159;52.414;9.784;2023-04-22T07:36:41;8.17;;;5.73;;
6251;SDS011;3159;52.414;9.784;2023-04-22T07:39:11;10.17;;;5.97;;
6251;SDS011;3159;52.414;9.784;2023-04-22T07:41:39;8.90;;;5.80;;
6251;SDS011;3159;52.414;9.784;2023-04-22T07:44:07;7.60;;;6.80;;
6251;SDS011;3159;52.414;9.784;2023-04-22T07:46:37;11.60;;;6.70;;
6251;SDS011;3159;52.414;9.784;2023-04-22T07:49:04;12.63;;;6.73;;
6251;SDS011;3159;52.414;9.784;2023-04-22T07:51:32;9.77;;;5.70;;
6251;SDS011;3159;52.414;9.784;2023-04-22T07:53:59;9.90;;;7.37;;
6251;SDS011;3159;52.414;9.784;2023-04-22T07:56:26;8.60;;;7.13;;
6251;SDS011;3159;52.414;9.784;2023-04-22T07:58:54;9.97;;;6.70;;
6251;SDS011;3159;52.414;9.784;2023-04-22T08:01:22;11.00;;;5.60;;
6251;SDS011;3159;52.414;9.784;2023-04-22T08:03:49;7.50;;;5.73;;
6251;SDS011;3159;52.414;9.784;2023-04-22T08:06:16;10.93;;;5.70;;
6251;SDS011;3159;52.414;9.784;2023-04-22T08:08:43;6.37;;;5.73;;
6251;SDS011;3159;52.414;9.784;2023-04-22T08:11:11;7.90;;;5.13;;
6251;SDS011;3159;52.414;9.784;2023-04-22T08:13:38;6.60;;;5.07;;
6251;SDS011;3159;52.414;9.784;2023-04-22T08:16:05;10.60;;;5.57;;
6251;SDS011;3159;52.414;9.784;2023-04-22T08:18:33;6.97;;;4.43;;
6251;SDS011;3159;52.414;9.784;2023-04-22T08:21:00;6.90;;;4.87;;
6251;SDS011;3159;52.414;9.784;2023-04-22T08:23:27;6.37;;;4.90;;
6251;SDS011;3159;52.414;9.784;2023-04-22T08:25:54;7.20;;;4.53;;
6251;SDS011;3159;52.414;9.784;2023-04-22T08:28:21;7.00;;;4.20;;
6251;SDS011;3159;52.414;9.784;2023-04-22T08:30:48;6.43;;;3.60;;
6251;SDS011;3159;52.414;9.784;2023-04-22T08:33:15;4.33;;;3.33;;
6251;SDS011;3159;52.414;9.784;2023-04-22T08:35:44;4.90;;;3.17;;
6251;SDS011;3159;52.414;9.784;2023-04-22T08:38:10;4.53;;;3.10;;
6251;SDS011;3159;52.414;9.784;2023-04-22T08:40:39;6.20;;;3.90;;
6251;SDS011;3159;52.414;9.784;2023-04-22T08:43:07;3.93;;;2.97;;
6251;SDS011;3159;52.414;9.784;2023-04-22T08:48:04;5.07;;;3.33;;
6251;SDS011;3159;52.414;9.784;2023-04-22T08:50:34;3.77;;;3.17;;
6251;SDS011;3159;52.414;9.784;2023-04-22T08:53:04;10.90;;;3.27;;
6251;SDS011;3159;52.414;9.784;2023-04-22T08:55:31;5.87;;;3.50;;
6251;SDS011;3159;52.414;9.784;2023-04-22T08:57:59;9.60;;;3.40;;
6251;SDS011;3159;52.414;9.784;2023-04-22T09:00:28;6.53;;;3.30;;
6251;SDS011;3159;52.414;9.784;2023-04-22T09:02:56;3.50;;;3.10;;
6251;SDS011;3159;52.414;9.784;2023-04-22T09:05:27;5.30;;;3.57;;
6251;SDS011;3159;52.414;9.784;2023-04-22T09:07:54;4.73;;;3.40;;
6251;SDS011;3159;52.414;9.784;2023-04-22T09:10:23;6.23;;;3.70;;
6251;SDS011;3159;52.414;9.784;2023-04-22T09:12:51;4.83;;;3.43;;
6251;SDS011;3159;52.414;9.784;2023-04-22T09:15:19;5.47;;;3.30;;
6251;SDS011;3159;52.414;9.784;2023-04-22T09:17:46;8.60;;;3.10;;
6251;SDS011;3159;52.414;9.784;2023-04-22T09:20:16;4.33;;;2.93;;
6251;SDS011;3159;52.414;9.784;2023-04-22T09:22:49;4.13;;;3.17;;
6251;SDS011;3159;52.414;9.784;2023-04-22T09:25:16;4.30;;;3.20;;
6251;SDS011;3159;52.414;9.784;2023-04-22T09:27:48;3.13;;;2.83;;
6251;SDS011;3159;52.414;9.784;2023-04-22T09:30:16;4.53;;;3.10;;
6251;SDS011;3159;52.414;9.784;2023-04-22T09:32:50;4.30;;;2.90;;
6251;SDS011;3159;52.414;9.784;2023-04-22T09:35:21;4.13;;;3.20;;
6251;SDS011;3159;52.414;9.784;2023-04-22T09:37:52;3.40;;;2.97;;
6251;SDS011;3159;52.414;9.784;2023-04-22T09:40:19;4.50;;;3.00;;
6251;SDS011;3159;52.414;9.784;2023-04-22T09:42:48;4.47;;;2.90;;
6251;SDS011;3159;52.414;9.784;2023-04-22T09:45:25;3.70;;;2.97;;
6251;SDS011;3159;52.414;9.784;2023-04-22T09:47:53;4.03;;;3.03;;
6251;SDS011;3159;52.414;9.784;2023-04-22T09:50:23;5.03;;;2.80;;
6251;SDS011;3159;52.414;9.784;2023-04-22T09:52:54;4.50;;;3.13;;
6251;SDS011;3159;52.414;9.784;2023-04-22T09:55:22;4.50;;;3.13;;
6251;SDS011;3159;52.414;9.784;2023-04-22T09:57:52;5.53;;;3.60;;
6251;SDS011;3159;52.414;9.784;2023-04-22T10:00:20;4.27;;;3.00;;
6251;SDS011;3159;52.414;9.784;2023-04-22T10:02:48;5.03;;;2.70;;
6251;SDS011;3159;52.414;9.784;2023-04-22T10:05:15;3.13;;;2.50;;
6251;SDS011;3159;52.414;9.784;2023-04-22T10:07:43;4.80;;;2.80;;
6251;SDS011;3159;52.414;9.784;2023-04-22T10:10:10;3.80;;;2.57;;
6251;SDS011;3159;52.414;9.784;2023-04-22T10:12:37;4.23;;;2.57;;
6251;SDS011;3159;52.414;9.784;2023-04-22T10:15:06;4.17;;;3.23;;
6251;SDS011;3159;52.414;9.784;2023-04-22T10:17:34;6.17;;;3.27;;
6251;SDS011;3159;52.414;9.784;2023-04-22T10:20:04;3.40;;;2.50;;
6251;SDS011;3159;52.414;9.784;2023-04-22T10:22:38;4.47;;;2.37;;
6251;SDS011;3159;52.414;9.784;2023-04-22T10:25:10;3.73;;;2.50;;
6251;SDS011;3159;52.414;9.784;2023-04-22T10:27:38;4.13;;;2.63;;
6251;SDS011;3159;52.414;9.784;2023-04-22T10:30:07;3.20;;;2.83;;
6251;SDS011;3159;52.414;9.784;2023-04-22T10:32:36;5.33;;;3.13;;
6251;SDS011;3159;52.414;9.784;2023-04-22T10:35:06;4.20;;;3.30;;
6251;SDS011;3159;52.414;9.784;2023-04-22T10:37:35;5.63;;;3.20;;
6251;SDS011;3159;52.414;9.784;2023-04-22T10:40:06;5.30;;;3.03;;
6251;SDS011;3159;52.414;9.784;2023-04-22T10:42:35;3.23;;;2.93;;
6251;SDS011;3159;52.414;9.784;2023-04-22T10:45:06;3.70;;;3.03;;
6251;SDS011;3159;52.414;9.784;2023-04-22T10:47:38;5.80;;;2.93;;
6251;SDS011;3159;52.414;9.784;2023-04-22T10:50:10;5.53;;;2.80;;
6251;SDS011;3159;52.414;9.784;2023-04-22T10:52:46;4.53;;;2.50;;
6251;SDS011;3159;52.414;9.784;2023-04-22T10:55:15;5.23;;;2.77;;
6251;SDS011;3159;52.414;9.784;2023-04-22T10:57:43;4.93;;;3.53;;
6251;SDS011;3159;52.414;9.784;2023-04-22T11:00:26;5.80;;;3.90;;
6251;SDS011;3159;52.414;9.784;2023-04-22T11:03:05;4.07;;;3.30;;
6251;SDS011;3159;52.414;9.784;2023-04-22T11:05:41;5.30;;;3.43;;
6251;SDS011;3159;52.414;9.784;2023-04-22T11:08:13;3.53;;;2.77;;
6251;SDS011;3159;52.414;9.784;2023-04-22T11:10:44;3.20;;;2.90;;
6251;SDS011;3159;52.414;9.784;2023-04-22T11:13:13;4.63;;;3.67;;
6251;SDS011;3159;52.414;9.784;2023-04-22T11:15:42;3.97;;;3.37;;
6251;SDS011;3159;52.414;9.784;2023-04-22T11:18:12;4.70;;;3.37;;
6251;SDS011;3159;52.414;9.784;2023-04-22T11:20:42;6.37;;;3.83;;
6251;SDS011;3159;52.414;9.784;2023-04-22T11:23:09;4.53;;;3.50;;
6251;SDS011;3159;52.414;9.784;2023-04-22T11:25:36;5.10;;;3.60;;
6251;SDS011;3159;52.414;9.784;2023-04-22T11:28:02;5.43;;;3.57;;
6251;SDS011;3159;52.414;9.784;2023-04-22T11:30:29;6.07;;;3.70;;
6251;SDS011;3159;52.414;9.784;2023-04-22T11:32:58;4.10;;;3.67;;
6251;SDS011;3159;52.414;9.784;2023-04-22T11:35:26;4.93;;;3.33;;
6251;SDS011;3159;52.414;9.784;2023-04-22T11:37:56;6.83;;;3.60;;
6251;SDS011;3159;52.414;9.784;2023-04-22T11:40:25;4.70;;;4.07;;
6251;SDS011;3159;52.414;9.784;2023-04-22T11:42:53;4.00;;;3.60;;
6251;SDS011;3159;52.414;9.784;2023-04-22T11:45:20;7.20;;;3.90;;
6251;SDS011;3159;52.414;9.784;2023-04-22T11:47:48;4.80;;;4.10;;
6251;SDS011;3159;52.414;9.784;2023-04-22T11:50:17;4.67;;;3.87;;
6251;SDS011;3159;52.414;9.784;2023-04-22T11:52:49;6.47;;;3.83;;
6251;SDS011;3159;52.414;9.784;2023-04-22T11:55:19;6.97;;;3.47;;
6251;SDS011;3159;52.414;9.784;2023-04-22T11:57:51;5.13;;;2.63;;
6251;SDS011;3159;52.414;9.784;2023-04-22T12:00:20;3.07;;;2.10;;
6251;SDS011;3159;52.414;9.784;2023-04-22T12:02:54;3.10;;;2.40;;
6251;SDS011;3159;52.414;9.784;2023-04-22T12:05:32;4.07;;;2.10;;
6251;SDS011;3159;52.414;9.784;2023-04-22T12:08:05;2.73;;;2.20;;
6251;SDS011;3159;52.414;9.784;2023-04-22T12:10:33;4.43;;;2.47;;
6251;SDS011;3159;52.414;9.784;2023-04-22T12:13:05;3.63;;;2.57;;
6251;SDS011;3159;52.414;9.784;2023-04-22T12:15:36;3.67;;;2.20;;
6251;SDS011;3159;52.414;9.784;2023-04-22T12:18:07;2.60;;;2.30;;
6251;SDS011;3159;52.414;9.784;2023-04-22T12:20:35;6.07;;;1.93;;
6251;SDS011;3159;52.414;9.784;2023-04-22T12:23:03;9.63;;;2.23;;
6251;SDS011;3159;52.414;9.784;2023-04-22T12:25:31;3.50;;;2.00;;
6251;SDS011;3159;52.414;9.784;2023-04-22T12:27:58;6.40;;;2.30;;
6251;SDS011;3159;52.414;9.784;2023-04-22T12:30:26;4.03;;;2.00;;
6251;SDS011;3159;52.414;9.784;2023-04-22T12:32:53;3.17;;;2.50;;
6251;SDS011;3159;52.414;9.784;2023-04-22T12:35:20;2.63;;;2.43;;
6251;SDS011;3159;52.414;9.784;2023-04-22T12:37:48;2.43;;;2.23;;
6251;SDS011;3159;52.414;9.784;2023-04-22T12:40:16;4.63;;;2.57;;
6251;SDS011;3159;52.414;9.784;2023-04-22T12:42:43;6.93;;;2.30;;
6251;SDS011;3159;52.414;9.784;2023-04-22T12:45:10;4.10;;;2.47;;
6251;SDS011;3159;52.414;9.784;2023-04-22T12:47:37;3.83;;;2.40;;
6251;SDS011;3159;52.414;9.784;2023-04-22T12:50:04;4.00;;;2.40;;
6251;SDS011;3159;52.414;9.784;2023-04-22T12:52:33;3.47;;;2.57;;
6251;SDS011;3159;52.414;9.784;2023-04-22T12:55:02;4.10;;;2.17;;
6251;SDS011;3159;52.414;9.784;2023-04-22T12:57:29;3.67;;;2.40;;
6251;SDS011;3159;52.414;9.784;2023-04-22T12:59:56;3.13;;;2.10;;
6251;SDS011;3159;52.414;9.784;2023-04-22T13:02:23;5.93;;;2.33;;
6251;SDS011;3159;52.414;9.784;2023-04-22T13:04:50;3.97;;;2.60;;
6251;SDS011;3159;52.414;9.784;2023-04-22T13:07:17;5.03;;;2.37;;
6251;SDS011;3159;52.414;9.784;2023-04-22T13:09:45;3.17;;;2.67;;
6251;SDS011;3159;52.414;9.784;2023-04-22T13:12:13;3.03;;;2.23;;
6251;SDS011;3159;52.414;9.784;2023-04-22T13:14:40;2.50;;;2.30;;
6251;SDS011;3159;52.414;9.784;2023-04-22T13:17:07;3.53;;;2.07;;
6251;SDS011;3159;52.414;9.784;2023-04-22T13:19:34;2.10;;;1.90;;
6251;SDS011;3159;52.414;9.784;2023-04-22T13:22:01;3.33;;;1.70;;
6251;SDS011;3159;52.414;9.784;2023-04-22T13:24:28;3.40;;;2.13;;
6251;SDS011;3159;52.414;9.784;2023-04-22T13:26:55;4.03;;;2.13;;
6251;SDS011;3159;52.414;9.784;2023-04-22T13:29:24;7.07;;;2.50;;
6251;SDS011;3159;52.414;9.784;2023-04-22T13:31:52;2.17;;;1.87;;
6251;SDS011;3159;52.414;9.784;2023-04-22T13:34:19;3.67;;;1.87;;
6251;SDS011;3159;52.414;9.784;2023-04-22T13:36:45;2.10;;;1.90;;
6251;SDS011;3159;52.414;9.784;2023-04-22T13:39:12;2.47;;;1.87;;
6251;SDS011;3159;52.414;9.784;2023-04-22T13:41:39;2.97;;;2.00;;
6251;SDS011;3159;52.414;9.784;2023-04-22T13:44:06;3.07;;;1.87;;
6251;SDS011;3159;52.414;9.784;2023-04-22T13:46:37;6.00;;;2.27;;
6251;SDS011;3159;52.414;9.784;2023-04-22T13:49:04;2.07;;;1.87;;
6251;SDS011;3159;52.414;9.784;2023-04-22T13:51:31;3.93;;;2.10;;
6251;SDS011;3159;52.414;9.784;2023-04-22T13:53:58;3.60;;;2.00;;
6251;SDS011;3159;52.414;9.784;2023-04-22T13:56:26;5.40;;;2.00;;
6251;SDS011;3159;52.414;9.784;2023-04-22T13:58:53;1.83;;;1.70;;
6251;SDS011;3159;52.414;9.784;2023-04-22T14:01:20;1.80;;;1.70;;
6251;SDS011;3159;52.414;9.784;2023-04-22T14:03:48;1.67;;;1.57;;
6251;SDS011;3159;52.414;9.784;2023-04-22T14:06:15;4.23;;;2.03;;
6251;SDS011;3159;52.414;9.784;2023-04-22T14:08:42;2.67;;;1.83;;
6251;SDS011;3159;52.414;9.784;2023-04-22T14:11:10;2.10;;;1.70;;
6251;SDS011;3159;52.414;9.784;2023-04-22T14:13:37;3.43;;;1.80;;
6251;SDS011;3159;52.414;9.784;2023-04-22T14:16:04;3.07;;;1.90;;
6251;SDS011;3159;52.414;9.784;2023-04-22T14:18:34;2.60;;;1.93;;
6251;SDS011;3159;52.414;9.784;2023-04-22T14:21:03;4.33;;;2.00;;
6251;SDS011;3159;52.414;9.784;2023-04-22T14:23:33;3.93;;;2.00;;
6251;SDS011;3159;52.414;9.784;2023-04-22T14:26:00;2.80;;;1.83;;
6251;SDS011;3159;52.414;9.784;2023-04-22T14:28:26;13.67;;;2.33;;
6251;SDS011;3159;52.414;9.784;2023-04-22T14:30:53;4.40;;;1.90;;
6251;SDS011;3159;52.414;9.784;2023-04-22T14:33:20;2.00;;;1.80;;
6251;SDS011;3159;52.414;9.784;2023-04-22T14:35:48;2.67;;;1.63;;
6251;SDS011;3159;52.414;9.784;2023-04-22T14:38:17;2.73;;;1.90;;
6251;SDS011;3159;52.414;9.784;2023-04-22T14:40:45;2.70;;;2.10;;
6251;SDS011;3159;52.414;9.784;2023-04-22T14:43:12;3.57;;;2.13;;
6251;SDS011;3159;52.414;9.784;2023-04-22T14:45:40;4.97;;;2.20;;
6251;SDS011;3159;52.414;9.784;2023-04-22T14:48:07;1.87;;;1.77;;
6251;SDS011;3159;52.414;9.784;2023-04-22T14:50:33;3.13;;;1.67;;
6251;SDS011;3159;52.414;9.784;2023-04-22T14:53:01;3.83;;;2.37;;
6251;SDS011;3159;52.414;9.784;2023-04-22T14:55:29;6.97;;;2.07;;
6251;SDS011;3159;52.414;9.784;2023-04-22T14:57:56;3.87;;;1.93;;
6251;SDS011;3159;52.414;9.784;2023-04-22T15:00:23;6.83;;;1.87;;
6251;SDS011;3159;52.414;9.784;2023-04-22T15:02:51;3.80;;;2.20;;
6251;SDS011;3159;52.414;9.784;2023-04-22T15:05:18;4.10;;;2.10;;
6251;SDS011;3159;52.414;9.784;2023-04-22T15:07:47;2.77;;;1.90;;
6251;SDS011;3159;52.414;9.784;2023-04-22T15:10:14;2.10;;;1.90;;
6251;SDS011;3159;52.414;9.784;2023-04-22T15:12:43;3.20;;;1.87;;